Terminal Aerodrome Forecast
Issued by NWS Quad Cities IA IL

Home | Current Version | Previous Version | Text Only | Print | Product List | Glossary On
Versions: 1 2 3 4 5 6 7 8 9 10 11 12 13 14 15 16 17
000
FTUS43 KDVN 161500 AAC
TAFMLI
TAF AMD
KMLI 161557Z 1616/1712 29021G29KT P6SM OVC012
     FM162000 32014G21KT P6SM BKN020
     FM170000 31014KT P6SM BKN025=

USA.gov is the U.S. government's official web portal to all federal, state and local government web resources and services.